Time;durP1;ratioP1;P1;durP2;ratioP2;P2;SDS_P1;SDS_P2;PMS_P1;PMS_P2;Temp;Humidity;BMP_temperature;BMP_pressure;BME280_temperature;BME280_humidity;BME280_pressure;Samples;Min_cycle;Max_cycle;Signal;HPM_P1;HPM_P2
2022/09/06 00:00:08;;;;;;;;;8.00;8.00;;;;;20.52;81.15;101270.91;5111905;27;50778;-68
2022/09/06 00:02:34;;;;;;;;;9.75;9.50;;;;;20.39;81.62;101250.59;5112235;27;50002;-68
2022/09/06 00:05:00;;;;;;;;;9.00;8.50;;;;;20.39;81.38;101267.50;5111892;27;49277;-68
2022/09/06 00:07:26;;;;;;;;;7.50;6.00;;;;;20.43;81.26;101266.56;5111382;27;50090;-68
2022/09/06 00:09:51;;;;;;;;;7.00;7.00;;;;;20.05;81.46;101208.31;5111871;27;50424;-69
2022/09/06 00:12:17;;;;;;;;;6.25;6.25;;;;;20.37;81.93;101260.41;5111753;27;49827;-69
2022/09/06 00:14:42;;;;;;;;;7.00;7.00;;;;;20.32;81.77;101247.13;5112292;27;49902;-69
2022/09/06 00:17:08;;;;;;;;;8.00;7.00;;;;;20.38;80.96;101249.72;5112200;27;49700;-69
2022/09/06 00:19:33;;;;;;;;;7.25;6.50;;;;;20.49;81.10;101266.50;5111790;27;49816;-68
2022/09/06 00:21:58;;;;;;;;;6.50;6.50;;;;;20.53;81.17;101286.91;5111656;27;49721;-68
2022/09/06 00:24:24;;;;;;;;;7.50;7.50;;;;;20.26;80.96;101261.38;5118317;27;49774;-69
2022/09/06 00:26:49;;;;;;;;;8.00;7.75;;;;;20.40;81.19;101281.69;5112099;27;49842;-68
2022/09/06 00:29:14;;;;;;;;;7.50;7.50;;;;;20.35;81.73;101286.19;5111209;27;60788;-68
2022/09/06 00:31:39;;;;;;;;;9.00;7.75;;;;;20.30;81.66;101278.25;5111532;27;49860;-68
2022/09/06 00:34:05;;;;;;;;;7.00;7.00;;;;;20.21;81.24;101268.56;5112096;27;49666;-68
2022/09/06 00:36:30;;;;;;;;;10.50;9.25;;;;;20.37;80.83;101300.41;5115365;27;49967;-68
2022/09/06 00:38:55;;;;;;;;;8.00;7.50;;;;;20.11;81.48;101263.34;5115052;27;58007;-68
2022/09/06 00:41:21;;;;;;;;;5.50;5.25;;;;;20.32;81.57;101310.22;5115046;27;59600;-68
2022/09/06 00:43:46;;;;;;;;;7.75;7.00;;;;;20.31;81.60;101301.34;5114994;27;50591;-68
2022/09/06 00:46:19;;;;;;;;;7.00;6.75;;;;;20.27;81.48;101310.28;5115443;27;49830;-68
2022/09/06 00:48:48;;;;;;;;;6.50;6.50;;;;;20.21;81.30;101281.03;5114940;27;51112;-68
2022/09/06 00:51:15;;;;;;;;;5.75;4.75;;;;;20.20;81.19;101277.47;5114921;27;49582;-68
2022/09/06 00:53:41;;;;;;;;;6.50;5.50;;;;;20.21;81.44;101289.00;5096519;27;49818;-68
2022/09/06 00:56:06;;;;;;;;;7.00;7.00;;;;;20.19;81.03;101297.03;5115258;27;49851;-68
2022/09/06 00:58:33;;;;;;;;;6.00;6.00;;;;;20.13;81.02;101291.75;5113538;27;50317;-69
2022/09/06 01:00:58;;;;;;;;;5.50;5.50;;;;;20.02;80.87;101272.31;5115050;27;49899;-69
2022/09/06 01:03:24;;;;;;;;;5.75;5.75;;;;;19.38;81.14;101172.56;5114637;27;49734;-68
2022/09/06 01:06:13;;;;;;;;;6.75;5.00;;;;;20.11;81.07;101295.34;5114536;27;50138;-68
2022/09/06 01:08:54;;;;;;;;;7.75;6.75;;;;;19.88;80.74;101256.50;5114288;27;49864;-68
2022/09/06 01:11:22;;;;;;;;;6.00;6.00;;;;;20.10;80.80;101297.13;5114202;27;49813;-69
2022/09/06 01:13:54;;;;;;;;;8.00;6.25;;;;;20.09;80.90;101289.16;5114214;27;49845;-69
2022/09/06 01:16:41;;;;;;;;;6.75;6.75;;;;;19.71;81.08;101235.31;5114507;27;49820;-68
2022/09/06 01:19:43;;;;;;;;;6.25;5.50;;;;;20.03;81.17;101287.41;5108548;27;50795;-67
2022/09/06 01:22:23;;;;;;;;;6.00;5.50;;;;;19.99;81.58;101293.69;5114408;27;49874;-68
2022/09/06 01:25:12;;;;;;;;;8.75;7.75;;;;;19.95;81.24;101287.47;5114537;27;49843;-69
2022/09/06 01:28:01;;;;;;;;;9.00;7.25;;;;;19.79;80.86;101261.03;5114678;27;49801;-69
2022/09/06 01:30:27;;;;;;;;;6.50;5.75;;;;;19.75;80.98;101257.47;5114738;27;49932;-69
2022/09/06 01:33:01;;;;;;;;;7.00;6.50;;;;;19.89;81.29;101278.69;5114169;27;49843;-70
2022/09/06 01:35:39;;;;;;;;;6.25;6.25;;;;;19.58;81.25;101243.41;5095891;27;49694;-69
2022/09/06 01:38:07;;;;;;;;;8.25;8.25;;;;;19.53;81.32;101237.22;5093660;27;50023;-69
2022/09/06 01:40:35;;;;;;;;;6.75;5.50;;;;;19.83;81.49;101298.25;5114125;27;50050;-69
2022/09/06 01:43:04;;;;;;;;;7.75;7.25;;;;;19.69;81.49;101282.41;5114054;27;49764;-69
2022/09/06 01:46:08;;;;;;;;;7.00;6.75;;;;;19.71;81.61;101288.59;5113918;27;49942;-69
2022/09/06 01:48:54;;;;;;;;;9.25;8.75;;;;;19.55;81.59;101262.06;5097757;27;49686;-69
2022/09/06 01:51:48;;;;;;;;;6.25;6.25;;;;;19.67;81.44;101289.50;5113942;27;50881;-68
2022/09/06 01:54:31;;;;;;;;;5.25;5.25;;;;;19.61;81.74;101284.25;5113908;27;49751;-70
2022/09/06 01:57:42;;;;;;;;;6.25;5.75;;;;;19.67;81.56;101293.94;5113959;27;49852;-69
2022/09/06 02:00:13;;;;;;;;;10.25;8.00;;;;;19.55;81.78;101273.59;5042986;27;49878;-70
2022/09/06 02:02:38;;;;;;;;;7.00;7.00;;;;;19.57;82.02;101281.59;5115365;27;51019;-69
2022/09/06 02:05:12;;;;;;;;;7.25;6.25;;;;;19.47;82.20;101271.88;5115962;27;50256;-69
2022/09/06 02:07:41;;;;;;;;;7.25;6.50;;;;;19.35;82.64;101256.91;5095379;27;49712;-69
2022/09/06 02:10:06;;;;;;;;;5.75;5.75;;;;;19.47;82.20;101271.88;5095264;27;50141;-69
2022/09/06 02:12:38;;;;;;;;;9.00;9.00;;;;;19.46;82.26;101271.00;5113424;27;49820;-69
2022/09/06 02:15:38;;;;;;;;;8.50;8.00;;;;;19.41;82.38;101260.41;5113829;27;49760;-69
2022/09/06 02:18:23;;;;;;;;;7.50;7.50;;;;;19.34;81.73;101256.00;5058104;27;49787;-69
2022/09/06 02:20:52;;;;;;;;;7.00;5.50;;;;;19.45;82.31;101277.22;5108253;27;49615;-70
2022/09/06 02:23:22;;;;;;;;;7.00;7.00;;;;;19.38;82.42;101273.72;5113616;27;49796;-70
2022/09/06 02:26:00;;;;;;;;;10.00;8.75;;;;;19.05;82.43;101223.41;5113465;27;49810;-69
2022/09/06 02:28:26;;;;;;;;;6.50;6.50;;;;;19.32;82.37;101267.56;5113461;27;49889;-70
2022/09/06 02:30:58;;;;;;;;;8.25;7.75;;;;;19.23;82.52;101267.63;5116482;27;50031;-70
2022/09/06 02:33:28;;;;;;;;;8.00;7.00;;;;;19.13;82.50;101254.38;5113244;27;51123;-70
2022/09/06 02:35:55;;;;;;;;;9.75;9.00;;;;;19.16;82.60;101267.66;5113049;27;49927;-69
2022/09/06 02:38:23;;;;;;;;;8.00;6.50;;;;;19.13;83.21;101274.78;5113386;27;49901;-69
2022/09/06 02:40:52;;;;;;;;;7.75;7.75;;;;;19.11;83.39;101276.59;5094899;27;49896;-71
2022/09/06 02:43:18;;;;;;;;;6.75;6.75;;;;;19.11;83.41;101279.25;5113219;27;49868;-68
2022/09/06 02:45:44;;;;;;;;;11.25;10.00;;;;;18.94;83.25;101252.72;5113479;27;49697;-69
2022/09/06 02:48:09;;;;;;;;;10.25;7.00;;;;;19.05;83.14;101265.97;5113152;27;49607;-69
2022/09/06 02:50:35;;;;;;;;;7.00;6.00;;;;;18.85;82.80;101247.47;5113240;27;49709;-70
2022/09/06 02:53:05;;;;;;;;;7.00;7.00;;;;;19.16;82.71;101288.97;5112910;27;50791;-69
2022/09/06 02:55:31;;;;;;;;;7.00;7.00;;;;;18.61;83.17;101192.56;5112799;27;49679;-69
2022/09/06 02:57:57;;;;;;;;;9.00;8.00;;;;;18.82;83.35;101223.56;5112198;27;49907;-69
2022/09/06 03:00:23;;;;;;;;;11.50;9.75;;;;;18.91;84.43;101246.53;5094597;27;49960;-69
2022/09/06 03:02:48;;;;;;;;;8.50;8.50;;;;;18.87;84.53;101245.66;5113006;27;49615;-71
2022/09/06 03:05:13;;;;;;;;;10.00;8.75;;;;;18.97;84.57;101258.03;5112881;27;49852;-73
2022/09/06 03:07:39;;;;;;;;;9.75;8.50;;;;;18.96;84.45;101252.72;5113166;27;49783;-71
2022/09/06 03:10:04;;;;;;;;;8.00;8.00;;;;;18.86;83.97;101233.28;5112556;27;51510;-68
2022/09/06 03:12:30;;;;;;;;;7.50;7.50;;;;;19.10;84.13;101273.00;5112625;27;50743;-68
2022/09/06 03:14:56;;;;;;;;;9.00;9.00;;;;;19.13;84.37;101280.13;5112730;27;49633;-69
2022/09/06 03:17:22;;;;;;;;;11.00;10.50;;;;;19.03;83.88;101278.41;5112994;27;49730;-69
2022/09/06 03:19:47;;;;;;;;;8.00;7.25;;;;;18.92;83.75;101256.31;5112642;27;49762;-69
2022/09/06 03:22:12;;;;;;;;;8.50;8.50;;;;;18.96;83.74;101261.59;5111937;27;51780;-69
2022/09/06 03:24:37;;;;;;;;;9.00;9.00;;;;;19.12;84.06;101307.63;5112307;27;57720;-69
2022/09/06 03:27:03;;;;;;;;;9.00;8.75;;;;;18.82;83.96;101261.66;5112267;27;49675;-69
2022/09/06 03:29:28;;;;;;;;;12.50;9.00;;;;;19.06;83.57;101310.31;5112743;27;49745;-69
2022/09/06 03:31:54;;;;;;;;;7.75;7.50;;;;;18.96;83.82;101292.63;5112034;27;60829;-69
2022/09/06 03:34:19;;;;;;;;;8.25;8.25;;;;;18.97;83.82;101303.25;5112189;27;54472;-69
2022/09/06 03:36:44;;;;;;;;;7.50;7.50;;;;;18.57;83.62;101233.38;5093629;27;55077;-69
2022/09/06 03:39:10;;;;;;;;;9.25;9.25;;;;;18.91;83.75;101305.06;5093754;27;50102;-69
2022/09/06 03:41:35;;;;;;;;;9.50;9.00;;;;;18.91;83.75;101305.06;5112359;27;49695;-68
2022/09/06 03:44:01;;;;;;;;;8.25;8.00;;;;;18.74;83.92;101291.84;5112424;27;49872;-69
2022/09/06 03:46:29;;;;;;;;;9.50;7.25;;;;;18.73;84.10;101295.41;5112324;27;49696;-69
2022/09/06 03:48:54;;;;;;;;;7.75;7.25;;;;;18.49;84.35;101256.44;5112461;27;49978;-68
2022/09/06 03:51:19;;;;;;;;;10.00;9.50;;;;;18.75;84.97;101313.13;5112310;27;50764;-68
2022/09/06 03:53:45;;;;;;;;;10.50;10.25;;;;;18.66;84.99;101294.53;5112208;27;49732;-69
2022/09/06 03:56:10;;;;;;;;;11.25;10.00;;;;;18.92;85.35;101344.97;5112355;27;50159;-69
2022/09/06 03:58:35;;;;;;;;;12.00;11.75;;;;;18.82;85.54;101328.16;5112448;27;49649;-69
2022/09/06 04:01:07;;;;;;;;;10.50;9.00;;;;;18.75;85.80;101328.19;5112036;27;52125;-70
2022/09/06 04:03:33;;;;;;;;;13.00;11.50;;;;;18.85;85.68;101346.78;5112067;27;49719;-69
2022/09/06 04:05:59;;;;;;;;;12.00;10.50;;;;;18.84;85.42;101331.69;5111695;27;49843;-69
2022/09/06 04:08:25;;;;;;;;;12.25;11.25;;;;;18.91;85.17;101339.63;5112064;27;49930;-69
2022/09/06 04:10:54;;;;;;;;;11.25;11.00;;;;;18.74;85.21;101318.44;5111926;27;50597;-70
2022/09/06 04:13:22;;;;;;;;;11.75;11.75;;;;;18.87;85.15;101342.31;5111831;27;49956;-69
2022/09/06 04:15:47;;;;;;;;;13.00;13.00;;;;;18.70;85.15;101322.88;5111982;27;49814;-76
2022/09/06 04:18:13;;;;;;;;;10.50;9.25;;;;;18.86;85.51;101360.97;5093619;27;49669;-70
2022/09/06 04:20:39;;;;;;;;;18.75;13.50;;;;;18.62;85.17;101327.28;5116271;27;50030;-79
2022/09/06 04:23:05;;;;;;;;;11.50;9.75;;;;;18.73;85.44;101338.84;5126720;27;49751;-86
2022/09/06 04:25:30;;;;;;;;;10.75;10.75;;;;;18.35;84.94;101264.50;5088702;27;49322;-85
2022/09/06 04:27:55;;;;;;;;;12.75;12.75;;;;;18.56;84.83;101319.38;5108125;27;49299;-86
2022/09/06 04:30:21;;;;;;;;;12.25;10.00;;;;;18.76;84.70;101341.47;5090038;27;51223;-84
2022/09/06 04:32:46;;;;;;;;;14.00;11.75;;;;;18.72;84.52;101366.34;5107226;27;49285;-79
2022/09/06 04:35:12;;;;;;;;;13.50;12.00;;;;;18.86;84.06;101375.13;5107070;27;50141;-80
2022/09/06 04:37:37;;;;;;;;;11.50;11.00;;;;;18.36;83.92;101286.63;5107674;27;49322;-72
2022/09/06 04:40:03;;;;;;;;;9.00;9.00;;;;;18.55;83.78;101328.22;5106806;27;49758;-75
2022/09/06 04:42:28;;;;;;;;;9.75;8.75;;;;;18.58;83.32;101330.88;5107244;27;49475;-75
2022/09/06 04:44:54;;;;;;;;;9.75;9.50;;;;;18.37;83.09;101299.03;5107488;27;49853;-79
2022/09/06 04:47:19;;;;;;;;;8.75;8.75;;;;;18.33;82.64;101286.63;5101318;27;49863;-78
2022/09/06 04:49:48;;;;;;;;;8.25;8.25;;;;;18.80;82.13;101376.94;5109735;27;49760;-74
2022/09/06 04:52:14;;;;;;;;;11.00;8.25;;;;;18.41;82.52;101316.72;5122854;27;49470;-71
2022/09/06 04:54:39;;;;;;;;;7.50;7.50;;;;;18.68;82.24;101359.22;5113877;27;49825;-77
2022/09/06 04:57:05;;;;;;;;;9.00;9.00;;;;;18.71;81.82;101376.94;5100494;27;49632;-83
2022/09/06 04:59:31;;;;;;;;;7.50;7.50;;;;;18.71;81.82;101374.28;5072871;27;50590;-71
2022/09/06 05:01:57;;;;;;;;;9.50;7.75;;;;;18.73;82.02;101376.09;5091208;27;49790;-71
2022/09/06 05:04:22;;;;;;;;;10.75;9.00;;;;;18.70;82.35;101384.03;5091113;27;49746;-73
2022/09/06 05:06:48;;;;;;;;;11.25;10.25;;;;;18.44;82.68;101349.53;5100525;27;49913;-72
2022/09/06 05:09:13;;;;;;;;;9.50;8.50;;;;;18.19;82.63;101306.16;5093306;27;49865;-74
2022/09/06 05:11:39;;;;;;;;;11.25;10.75;;;;;18.54;82.67;101377.88;5104458;27;50110;-73
2022/09/06 05:14:04;;;;;;;;;13.50;13.50;;;;;18.14;82.62;101307.91;5101234;27;49833;-71
2022/09/06 05:16:29;;;;;;;;;10.75;10.25;;;;;18.52;82.46;101368.09;5104608;27;49953;-70
2022/09/06 05:18:55;;;;;;;;;9.00;9.00;;;;;18.38;82.88;101356.63;5096552;27;51083;-78
2022/09/06 05:21:20;;;;;;;;;8.25;7.75;;;;;18.23;82.97;101328.28;5094637;27;49623;-74
2022/09/06 05:23:45;;;;;;;;;11.00;10.00;;;;;18.28;82.84;101343.34;5114819;27;49611;-74
2022/09/06 05:26:11;;;;;;;;;8.75;8.50;;;;;18.42;83.03;101371.66;5115046;27;49902;-84
2022/09/06 05:28:36;;;;;;;;;9.25;8.50;;;;;17.91;82.90;101285.81;5095873;27;66983;-79
2022/09/06 05:31:06;;;;;;;;;11.75;11.50;;;;;18.02;84.70;101305.28;5112305;27;49964;-72
2022/09/06 05:33:32;;;;;;;;;6.50;6.50;;;;;18.34;85.10;101370.81;5111418;27;49897;-74
2022/09/06 05:35:58;;;;;;;;;9.25;8.75;;;;;18.23;86.23;101345.09;5114284;27;49957;-77
2022/09/06 05:38:24;;;;;;;;;10.00;8.75;;;;;18.47;86.22;101384.06;5095739;27;51526;-77
2022/09/06 05:40:49;;;;;;;;;8.50;8.50;;;;;18.45;86.79;101372.56;5114731;27;50250;-74
2022/09/06 05:43:14;;;;;;;;;10.00;9.25;;;;;18.48;86.57;101377.88;5114573;27;49719;-74
2022/09/06 05:45:40;;;;;;;;;9.50;9.25;;;;;18.06;86.63;101311.50;5108770;27;49803;-73
2022/09/06 05:48:05;;;;;;;;;9.25;9.25;;;;;17.27;87.52;101153.09;5110394;27;49942;-72
2022/09/06 05:50:30;;;;;;;;;8.50;8.25;;;;;18.46;86.42;101360.16;5113400;27;49682;-77
2022/09/06 05:52:56;;;;;;;;;12.75;11.50;;;;;18.45;87.36;101342.44;5109380;27;49766;-73
2022/09/06 05:55:21;;;;;;;;;11.50;9.00;;;;;18.34;85.39;101321.19;5097375;27;49601;-76
2022/09/06 05:57:46;;;;;;;;;10.50;10.00;;;;;18.24;86.46;101282.25;5094982;27;54066;-73
2022/09/06 06:00:12;;;;;;;;;10.00;9.00;;;;;18.86;86.11;101372.47;5093948;27;49907;-74
2022/09/06 06:02:38;;;;;;;;;9.75;8.75;;;;;18.89;86.49;101363.59;5104632;27;49686;-83
2022/09/06 06:05:04;;;;;;;;;7.00;7.00;;;;;17.90;85.48;101175.16;5108893;27;49891;-74
2022/09/06 06:07:30;;;;;;;;;7.25;7.00;;;;;18.99;86.16;101364.44;5101443;27;50883;-76
2022/09/06 06:09:55;;;;;;;;;10.00;10.00;;;;;18.95;86.30;101336.09;5106700;27;49805;-79
2022/09/06 06:12:21;;;;;;;;;11.00;9.50;;;;;19.07;85.67;101341.34;5090326;27;49359;-79
2022/09/06 06:14:46;;;;;;;;;12.00;10.50;;;;;19.20;85.37;101336.84;5116072;27;50043;-73
2022/09/06 06:17:11;;;;;;;;;14.75;9.50;;;;;19.52;84.42;101376.59;5109482;27;55078;-73
2022/09/06 06:19:37;;;;;;;;;8.25;7.75;;;;;19.42;83.11;101336.72;5116564;27;49741;-77
2022/09/06 06:22:02;;;;;;;;;8.00;8.00;;;;;18.50;82.50;101184.66;5113405;27;49843;-76
2022/09/06 06:24:27;;;;;;;;;6.75;6.50;;;;;19.19;82.66;101295.16;5113415;27;49940;-77
2022/09/06 06:26:53;;;;;;;;;9.75;7.75;;;;;19.17;82.97;101241.94;5113182;27;49847;-77
2022/09/06 06:29:18;;;;;;;;;10.25;9.50;;;;;19.00;81.90;101231.38;5113286;27;49825;-77
2022/09/06 06:31:44;;;;;;;;;13.75;13.75;;;;;19.02;81.63;101236.72;5094371;27;49656;-76
2022/09/06 06:34:09;;;;;;;;;13.50;11.50;;;;;19.64;81.62;101275.34;5111113;27;49770;-77
2022/09/06 06:36:35;;;;;;;;;12.00;10.25;;;;;20.26;80.47;101372.47;5110899;27;50916;-80
2022/09/06 06:39:03;;;;;;;;;9.00;9.00;;;;;19.95;80.02;101289.25;5112359;27;49816;-88
2022/09/06 06:41:31;;;;;;;;;5.75;5.50;;;;;19.50;80.71;101190.22;5113424;27;49771;-85
2022/09/06 06:44:01;;;;;;;;;10.75;9.75;;;;;20.50;80.52;101361.63;5114063;27;49920;-85
2022/09/06 06:46:30;;;;;;;;;10.25;8.00;;;;;19.95;79.53;101286.59;5113068;27;49853;-78
2022/09/06 06:48:55;;;;;;;;;9.00;8.00;;;;;19.22;78.95;101141.66;5094145;27;49840;-79
2022/09/06 06:51:24;;;;;;;;;10.00;9.25;;;;;19.83;77.38;101236.97;5112973;27;49875;-79
2022/09/06 06:53:50;;;;;;;;;8.00;7.50;;;;;19.77;77.40;101226.38;5113106;27;49885;-79
2022/09/06 06:56:18;;;;;;;;;9.50;8.75;;;;;19.69;77.40;101244.25;5113084;27;50720;-80
2022/09/06 06:58:45;;;;;;;;;11.25;9.75;;;;;19.61;77.71;101212.34;5112842;27;49777;-82
2022/09/06 07:01:11;;;;;;;;;6.75;6.75;;;;;18.99;77.83;101090.41;5118152;27;49586;-78
2022/09/06 07:03:36;;;;;;;;;9.00;8.75;;;;;20.29;78.49;101322.69;5117260;27;49964;-78
2022/09/06 07:06:03;;;;;;;;;11.00;8.00;;;;;19.49;77.75;101244.34;5093876;27;49975;-78
2022/09/06 07:08:28;;;;;;;;;9.00;7.25;;;;;20.09;77.29;101313.13;5074736;27;49724;-77
2022/09/06 07:10:54;;;;;;;;;9.25;7.25;;;;;19.24;77.81;101214.38;5093089;27;49822;-78
2022/09/06 07:13:19;;;;;;;;;8.75;8.00;;;;;19.92;78.98;101337.25;5092951;27;49675;-78
2022/09/06 07:15:44;;;;;;;;;11.50;8.50;;;;;18.80;78.14;101133.09;5092888;27;49900;-77
2022/09/06 07:18:10;;;;;;;;;9.50;8.25;;;;;20.26;78.46;101380.47;5092809;27;49732;-77
2022/09/06 07:20:35;;;;;;;;;8.25;8.25;;;;;18.56;77.37;101058.78;5092567;27;49692;-76
2022/09/06 07:23:04;;;;;;;;;11.00;8.25;;;;;19.96;78.31;101278.59;5092912;27;49769;-77
2022/09/06 07:25:30;;;;;;;;;9.25;9.25;;;;;20.13;78.05;101302.41;5092389;27;50039;-77
2022/09/06 07:28:07;;;;;;;;;7.50;7.50;;;;;20.41;78.32;101363.47;5092282;27;49870;-77
2022/09/06 07:30:35;;;;;;;;;7.00;7.00;;;;;20.19;77.82;101328.16;5074121;27;49692;-78
2022/09/06 07:33:04;;;;;;;;;4.50;4.50;;;;;19.72;76.58;101221.09;5092724;27;50389;-77
2022/09/06 07:35:30;;;;;;;;;6.00;5.00;;;;;19.70;74.81;101198.06;5092051;27;50948;-79
2022/09/06 07:37:57;;;;;;;;;5.00;5.00;;;;;20.78;74.17;101356.88;5092237;27;50126;-78
2022/09/06 07:40:24;;;;;;;;;8.00;8.00;;;;;20.83;75.05;101371.03;5092180;27;49780;-78
2022/09/06 07:42:49;;;;;;;;;9.75;8.50;;;;;20.23;73.23;101271.22;5091734;27;49823;-77
2022/09/06 07:45:15;;;;;;;;;6.00;6.00;;;;;19.97;73.90;101189.75;5092269;27;50312;-77
2022/09/06 07:47:41;;;;;;;;;10.75;9.25;;;;;20.29;73.67;101258.72;5073751;27;49791;-77
2022/09/06 07:50:07;;;;;;;;;8.00;7.00;;;;;20.26;73.04;101233.84;5073213;27;49779;-77
2022/09/06 07:52:32;;;;;;;;;7.75;7.75;;;;;20.95;73.23;101363.78;5092500;27;49606;-78
2022/09/06 07:54:58;;;;;;;;;6.50;6.50;;;;;20.11;72.62;101213.59;5091990;27;49917;-78
2022/09/06 07:57:23;;;;;;;;;7.00;4.00;;;;;20.73;73.11;101294.66;5091927;27;49721;-77
2022/09/06 07:59:50;;;;;;;;;6.00;5.50;;;;;20.83;73.23;101323.00;5091926;27;49585;-77
2022/09/06 08:02:16;;;;;;;;;5.25;5.25;;;;;20.55;72.75;101274.41;5092178;27;50098;-77
2022/09/06 08:04:42;;;;;;;;;5.75;4.50;;;;;20.43;72.82;101223.91;5091527;27;50948;-78
2022/09/06 08:07:08;;;;;;;;;9.00;8.25;;;;;20.50;71.22;101238.94;5091884;27;50361;-77
2022/09/06 08:09:34;;;;;;;;;5.00;5.00;;;;;21.00;70.97;101271.19;5092657;27;50185;-77
2022/09/06 08:12:05;;;;;;;;;8.00;3.75;;;;;20.60;68.94;101212.16;5092351;27;49897;-77
2022/09/06 08:14:31;;;;;;;;;3.75;3.75;;;;;21.68;69.32;101398.41;5091267;27;49819;-77
2022/09/06 08:16:56;;;;;;;;;5.50;4.00;;;;;21.13;69.13;101271.00;5091781;27;49797;-77
2022/09/06 08:19:21;;;;;;;;;7.25;6.25;;;;;21.34;67.18;101327.69;5091642;27;49905;-77
2022/09/06 08:21:47;;;;;;;;;4.50;4.00;;;;;21.14;68.02;101261.22;5091877;27;50068;-77
2022/09/06 08:24:12;;;;;;;;;4.00;4.00;;;;;21.63;67.53;101328.13;5091564;27;49792;-77
2022/09/06 08:26:39;;;;;;;;;5.00;5.00;;;;;21.90;66.24;101384.72;5091742;27;49802;-77
2022/09/06 08:29:07;;;;;;;;;5.00;4.00;;;;;21.09;65.00;101245.25;5091853;27;49753;-78
2022/09/06 08:31:35;;;;;;;;;6.25;6.00;;;;;21.83;66.89;101327.81;5091852;27;50072;-78
2022/09/06 08:34:01;;;;;;;;;3.50;3.50;;;;;21.90;64.78;101310.75;5107593;27;49887;-78
2022/09/06 08:36:30;;;;;;;;;6.00;6.00;;;;;22.24;65.98;101347.63;5110794;27;49696;-77
2022/09/06 08:39:00;;;;;;;;;4.75;4.75;;;;;21.35;66.27;101209.28;5110978;27;49735;-77
2022/09/06 08:41:36;;;;;;;;;4.75;3.00;;;;;21.60;64.49;101215.94;5111491;27;49987;-77
2022/09/06 08:44:09;;;;;;;;;4.50;2.75;;;;;22.40;64.84;101337.53;5111014;27;50049;-78
2022/09/06 08:46:39;;;;;;;;;4.00;4.00;;;;;22.45;62.73;101343.66;5111056;27;49703;-77
2022/09/06 08:49:06;;;;;;;;;3.00;3.00;;;;;21.38;63.83;101150.47;5110885;27;49846;-77
2022/09/06 08:52:06;;;;;;;;;3.25;3.25;;;;;22.44;62.68;101333.88;5111079;27;49818;-77
2022/09/06 08:54:58;;;;;;;;;4.00;4.00;;;;;22.44;62.83;101328.53;5092147;27;51890;-78
2022/09/06 08:57:39;;;;;;;;;6.00;4.00;;;;;22.47;64.42;101344.53;5114440;27;49724;-77
2022/09/06 09:00:09;;;;;;;;;4.50;4.50;;;;;21.87;64.97;101261.81;5096196;27;49843;-77
2022/09/06 09:02:43;;;;;;;;;2.25;2.25;;;;;22.54;63.14;101338.16;5114802;27;50396;-78
2022/09/06 09:05:21;;;;;;;;;8.25;6.00;;;;;21.86;63.49;101238.66;5095431;27;50164;-78
2022/09/06 09:07:57;;;;;;;;;4.00;4.00;;;;;22.45;62.62;101322.28;5114396;27;49716;-79
2022/09/06 09:10:33;;;;;;;;;5.00;5.00;;;;;21.34;62.04;101127.41;5114942;27;50023;-79
2022/09/06 09:13:03;;;;;;;;;6.00;6.00;;;;;21.76;62.08;101187.19;5095845;27;49986;-81
2022/09/06 09:15:29;;;;;;;;;3.00;3.00;;;;;22.83;63.02;101342.91;5114798;27;50382;-77
2022/09/06 09:17:54;;;;;;;;;3.00;3.00;;;;;21.80;61.55;101164.81;5114808;27;49676;-78
2022/09/06 09:20:20;;;;;;;;;3.00;3.00;;;;;22.54;61.50;101277.50;5114417;27;49906;-78
2022/09/06 09:22:47;;;;;;;;;3.00;2.25;;;;;22.82;61.26;101317.06;5114928;27;49865;-78
2022/09/06 09:25:18;;;;;;;;;3.25;3.25;;;;;22.88;61.08;101316.09;5114497;27;50528;-77
2022/09/06 09:27:45;;;;;;;;;4.75;3.75;;;;;21.83;60.04;101150.53;5114438;27;49804;-77
2022/09/06 09:30:11;;;;;;;;;4.00;4.00;;;;;22.57;60.79;101237.28;5114576;27;49833;-75
2022/09/06 09:32:43;;;;;;;;;3.75;3.75;;;;;23.46;59.98;101360.34;5114755;27;49732;-77
2022/09/06 09:35:17;;;;;;;;;1.75;0.25;;;;;23.62;60.36;101362.66;5113918;27;50293;-77
2022/09/06 09:37:43;;;;;;;;;2.75;2.75;;;;;22.26;57.74;101131.84;5108060;27;49719;-78
2022/09/06 09:40:24;;;;;;;;;6.00;5.25;;;;;24.05;58.16;101366.97;5107590;27;49639;-75
2022/09/06 09:42:51;;;;;;;;;5.25;3.00;;;;;24.33;57.60;101375.22;5115186;27;49897;-75
2022/09/06 09:45:20;;;;;;;;;4.00;4.00;;;;;24.51;57.01;101358.63;5113860;27;49796;-76
2022/09/06 09:47:46;;;;;;;;;3.75;3.75;;;;;23.60;54.95;101174.19;5114202;27;49607;-75
2022/09/06 09:50:32;;;;;;;;;3.50;3.00;;;;;24.38;54.73;101302.63;5114045;27;49616;-75
2022/09/06 09:53:14;;;;;;;;;3.25;3.25;;;;;23.95;54.59;101229.56;5114219;27;49694;-75
2022/09/06 09:55:41;;;;;;;;;4.25;3.50;;;;;24.78;52.93;101370.38;5113937;27;50798;-75
2022/09/06 09:58:18;;;;;;;;;4.75;4.75;;;;;24.59;53.79;101295.78;5114041;27;49793;-75
2022/09/06 10:00:44;;;;;;;;;3.00;3.00;;;;;24.45;53.25;101262.19;5082067;27;49761;-75
2022/09/06 10:03:26;;;;;;;;;2.25;2.25;;;;;24.85;53.61;101330.81;5114251;27;49638;-76
2022/09/06 10:05:57;;;;;;;;;3.00;3.00;;;;;24.40;53.25;101264.09;5113693;27;51275;-75
2022/09/06 10:08:24;;;;;;;;;8.00;5.00;;;;;24.20;54.15;101259.25;5113682;27;49522;-75
2022/09/06 10:10:50;;;;;;;;;2.25;2.25;;;;;24.85;54.07;101363.03;5113740;27;50003;-75
2022/09/06 10:13:21;;;;;;;;;4.00;4.00;;;;;24.59;53.42;101295.78;5113647;27;49970;-75
2022/09/06 10:15:49;;;;;;;;;1.75;1.25;;;;;24.70;53.19;101307.09;5113534;27;52450;-75
2022/09/06 10:18:39;;;;;;;;;2.00;2.00;;;;;25.03;54.37;101335.69;5113997;27;49738;-75
2022/09/06 10:21:08;;;;;;;;;3.00;3.00;;;;;24.22;52.92;101162.63;5113478;27;49944;-75
2022/09/06 10:23:44;;;;;;;;;3.00;3.00;;;;;25.48;53.06;101356.69;5113681;27;49644;-75
2022/09/06 10:26:19;;;;;;;;;4.00;2.50;;;;;25.31;53.12;101326.78;5113272;27;51200;-75
2022/09/06 10:28:44;;;;;;;;;4.75;3.75;;;;;25.33;51.67;101303.41;5113419;27;49739;-75
2022/09/06 10:31:28;;;;;;;;;3.25;3.25;;;;;25.80;50.26;101365.56;5113369;27;49975;-75
2022/09/06 10:34:08;;;;;;;;;2.75;1.75;;;;;25.60;51.38;101329.41;5113694;27;49787;-75
2022/09/06 10:36:36;;;;;;;;;1.50;1.50;;;;;25.79;49.74;101350.38;5113053;27;49766;-74
2022/09/06 10:39:24;;;;;;;;;2.00;2.00;;;;;24.59;51.69;101164.25;5113422;27;49780;-77
2022/09/06 10:42:12;;;;;;;;;3.00;3.00;;;;;24.54;52.20;101151.88;5113179;27;49573;-75
2022/09/06 10:45:02;;;;;;;;;4.00;3.00;;;;;24.64;51.12;101184.69;5113480;27;49834;-75
2022/09/06 10:47:37;;;;;;;;;2.75;2.75;;;;;24.72;52.09;101158.47;5112973;27;49941;-75
2022/09/06 10:50:04;;;;;;;;;3.50;3.50;;;;;25.17;52.38;101238.53;5106988;27;49585;-75
2022/09/06 10:52:51;;;;;;;;;5.50;3.75;;;;;24.40;51.85;101127.25;5112895;27;49707;-75
2022/09/06 10:55:18;;;;;;;;;1.00;1.00;;;;;25.22;52.76;101251.84;5113348;27;49922;-75
2022/09/06 10:57:58;;;;;;;;;1.25;1.25;;;;;25.41;53.67;101285.25;5113187;27;50037;-75
2022/09/06 11:00:23;;;;;;;;;2.00;2.00;;;;;24.24;53.00;101089.25;5112981;27;49723;-75
2022/09/06 11:02:59;;;;;;;;;3.50;3.00;;;;;24.82;53.60;101173.38;5112928;27;49897;-75
2022/09/06 11:05:29;;;;;;;;;2.25;2.00;;;;;25.47;53.77;101270.72;5113164;27;49682;-75
2022/09/06 11:08:12;;;;;;;;;1.50;1.50;;;;;24.72;52.61;101118.19;5112568;27;49856;-76
2022/09/06 11:10:44;;;;;;;;;3.25;3.25;;;;;24.39;52.45;101082.56;5112787;27;49820;-76
2022/09/06 11:13:13;;;;;;;;;3.00;2.00;;;;;24.96;51.51;101102.22;5094033;27;49887;-75
2022/09/06 11:15:47;;;;;;;;;3.25;2.50;;;;;26.11;51.66;101271.25;5113004;27;49725;-75
2022/09/06 11:18:17;;;;;;;;;2.75;2.75;;;;;25.46;51.19;101134.56;5111581;27;50328;-75
2022/09/06 11:21:04;;;;;;;;;3.00;3.00;;;;;26.58;48.31;101264.16;5112645;27;49860;-74
2022/09/06 11:23:51;;;;;;;;;4.00;3.50;;;;;26.70;48.74;101265.50;5112865;27;50080;-75
2022/09/06 11:26:33;;;;;;;;;2.00;2.00;;;;;26.81;47.72;101261.44;5113224;27;50022;-75
2022/09/06 11:29:03;;;;;;;;;2.50;2.25;;;;;26.69;47.88;101223.34;5112680;27;50162;-75
2022/09/06 11:31:32;;;;;;;;;2.25;2.25;;;;;26.61;47.37;101188.63;5111374;27;49879;-75